sensor_id;sensor_type;location;lat;lon;timestamp;pressure;altitude;pressure_sealevel;temperature;humidity
44027;BME280;29696;55.698;37.460;2023-04-22T00:01:41;99010.97;;;8.85;46.19
44027;BME280;29696;55.698;37.460;2023-04-22T00:04:07;99019.88;;;8.84;46.52
44027;BME280;29696;55.698;37.460;2023-04-22T00:06:34;99019.88;;;8.84;46.44
44027;BME280;29696;55.698;37.460;2023-04-22T00:09:01;99025.97;;;8.84;46.51
44027;BME280;29696;55.698;37.460;2023-04-22T00:11:28;99012.38;;;8.79;46.79
44027;BME280;29696;55.698;37.460;2023-04-22T00:13:55;99016.81;;;8.79;46.41
44027;BME280;29696;55.698;37.460;2023-04-22T00:16:21;99022.06;;;8.79;46.64
44027;BME280;29696;55.698;37.460;2023-04-22T00:18:48;99015.44;;;8.75;46.55
44027;BME280;29696;55.698;37.460;2023-04-22T00:21:14;99026.94;;;8.74;46.42
44027;BME280;29696;55.698;37.460;2023-04-22T00:23:40;99025.13;;;8.74;46.44
44027;BME280;29696;55.698;37.460;2023-04-22T00:26:10;99028.88;;;8.72;46.63
44027;BME280;29696;55.698;37.460;2023-04-22T00:28:38;99023.44;;;8.73;46.53
44027;BME280;29696;55.698;37.460;2023-04-22T00:31:05;99025.41;;;8.71;46.61
44027;BME280;29696;55.698;37.460;2023-04-22T00:33:32;99024.84;;;8.67;47.19
44027;BME280;29696;55.698;37.460;2023-04-22T00:35:59;99029.41;;;8.65;47.26
44027;BME280;29696;55.698;37.460;2023-04-22T00:38:25;99029.81;;;8.61;47.37
44027;BME280;29696;55.698;37.460;2023-04-22T00:40:52;99033.53;;;8.58;47.77
44027;BME280;29696;55.698;37.460;2023-04-22T00:43:18;99031.19;;;8.55;47.61
44027;BME280;29696;55.698;37.460;2023-04-22T00:45:45;99028.72;;;8.54;47.89
44027;BME280;29696;55.698;37.460;2023-04-22T00:48:12;99031.47;;;8.52;47.92
44027;BME280;29696;55.698;37.460;2023-04-22T00:50:39;99025.25;;;8.53;48.14
44027;BME280;29696;55.698;37.460;2023-04-22T00:53:05;99015.00;;;8.50;47.76
44027;BME280;29696;55.698;37.460;2023-04-22T00:55:32;99025.81;;;8.57;47.91
44027;BME280;29696;55.698;37.460;2023-04-22T00:58:00;99032.59;;;8.59;48.08
44027;BME280;29696;55.698;37.460;2023-04-22T01:00:28;99031.19;;;8.55;48.13
44027;BME280;29696;55.698;37.460;2023-04-22T01:02:55;99022.19;;;8.48;48.40
44027;BME280;29696;55.698;37.460;2023-04-22T01:05:26;99027.59;;;8.47;48.42
44027;BME280;29696;55.698;37.460;2023-04-22T01:07:53;99025.63;;;8.39;48.36
44027;BME280;29696;55.698;37.460;2023-04-22T01:10:19;99020.72;;;8.34;48.79
44027;BME280;29696;55.698;37.460;2023-04-22T01:12:46;99020.31;;;8.29;48.74
44027;BME280;29696;55.698;37.460;2023-04-22T01:15:13;99010.16;;;8.24;48.86
44027;BME280;29696;55.698;37.460;2023-04-22T01:17:39;99017.78;;;8.28;49.01
44027;BME280;29696;55.698;37.460;2023-04-22T01:20:06;99023.34;;;8.24;49.09
44027;BME280;29696;55.698;37.460;2023-04-22T01:22:39;99020.97;;;8.21;49.02
44027;BME280;29696;55.698;37.460;2023-04-22T01:25:07;99023.03;;;8.18;49.02
44027;BME280;29696;55.698;37.460;2023-04-22T01:27:34;99017.47;;;8.11;49.52
44027;BME280;29696;55.698;37.460;2023-04-22T01:30:01;99014.41;;;8.06;49.75
44027;BME280;29696;55.698;37.460;2023-04-22T01:32:31;99015.38;;;8.05;49.69
44027;BME280;29696;55.698;37.460;2023-04-22T01:34:58;99018.28;;;8.02;49.94
44027;BME280;29696;55.698;37.460;2023-04-22T01:37:24;99017.84;;;7.97;49.84
44027;BME280;29696;55.698;37.460;2023-04-22T01:39:51;99017.13;;;7.95;49.79
44027;BME280;29696;55.698;37.460;2023-04-22T01:42:18;99014.75;;;7.92;50.28
44027;BME280;29696;55.698;37.460;2023-04-22T01:44:46;99013.94;;;7.91;50.28
44027;BME280;29696;55.698;37.460;2023-04-22T01:47:12;99013.81;;;7.93;50.08
44027;BME280;29696;55.698;37.460;2023-04-22T01:49:38;99015.84;;;7.89;50.12
44027;BME280;29696;55.698;37.460;2023-04-22T01:52:05;99009.78;;;7.89;50.21
44027;BME280;29696;55.698;37.460;2023-04-22T01:54:32;99012.66;;;7.86;50.34
44027;BME280;29696;55.698;37.460;2023-04-22T01:56:58;99012.94;;;7.83;50.48
44027;BME280;29696;55.698;37.460;2023-04-22T01:59:25;99014.03;;;7.80;50.51
44027;BME280;29696;55.698;37.460;2023-04-22T02:01:51;99014.16;;;7.78;50.58
44027;BME280;29696;55.698;37.460;2023-04-22T02:04:18;99003.91;;;7.75;50.93
44027;BME280;29696;55.698;37.460;2023-04-22T02:06:44;99015.38;;;7.74;50.81
44027;BME280;29696;55.698;37.460;2023-04-22T02:09:11;99015.78;;;7.70;50.75
44027;BME280;29696;55.698;37.460;2023-04-22T02:11:38;99016.22;;;7.75;51.07
44027;BME280;29696;55.698;37.460;2023-04-22T02:14:04;99013.59;;;7.75;51.00
44027;BME280;29696;55.698;37.460;2023-04-22T02:16:31;99003.19;;;7.73;51.12
44027;BME280;29696;55.698;37.460;2023-04-22T02:18:57;99018.19;;;7.83;50.64
44027;BME280;29696;55.698;37.460;2023-04-22T02:21:27;99014.84;;;7.81;50.73
44027;BME280;29696;55.698;37.460;2023-04-22T02:23:53;99024.28;;;7.83;50.61
44027;BME280;29696;55.698;37.460;2023-04-22T02:26:20;99015.81;;;7.80;50.70
44027;BME280;29696;55.698;37.460;2023-04-22T02:28:46;99020.25;;;7.79;50.71
44027;BME280;29696;55.698;37.460;2023-04-22T02:31:13;99013.34;;;7.78;51.06
44027;BME280;29696;55.698;37.460;2023-04-22T02:33:40;99010.56;;;7.80;50.93
44027;BME280;29696;55.698;37.460;2023-04-22T02:36:08;99018.44;;;7.80;50.99
44027;BME280;29696;55.698;37.460;2023-04-22T02:38:35;99010.72;;;7.78;51.18
44027;BME280;29696;55.698;37.460;2023-04-22T02:41:02;99011.66;;;7.77;51.11
44027;BME280;29696;55.698;37.460;2023-04-22T02:43:29;99023.72;;;7.80;50.94
44027;BME280;29696;55.698;37.460;2023-04-22T02:45:55;99022.88;;;7.79;50.87
44027;BME280;29696;55.698;37.460;2023-04-22T02:48:22;99016.53;;;7.82;50.94
44027;BME280;29696;55.698;37.460;2023-04-22T02:50:49;99015.28;;;7.86;51.19
44027;BME280;29696;55.698;37.460;2023-04-22T02:53:15;99019.75;;;7.95;50.88
44027;BME280;29696;55.698;37.460;2023-04-22T02:55:42;99019.09;;;7.93;50.59
44027;BME280;29696;55.698;37.460;2023-04-22T02:58:08;99014.50;;;7.95;51.08
44027;BME280;29696;55.698;37.460;2023-04-22T03:00:35;99023.09;;;7.97;50.66
44027;BME280;29696;55.698;37.460;2023-04-22T03:03:02;99027.84;;;8.03;50.65
44027;BME280;29696;55.698;37.460;2023-04-22T03:05:31;99026.31;;;8.10;50.37
44027;BME280;29696;55.698;37.460;2023-04-22T03:07:58;99022.47;;;8.14;50.38
44027;BME280;29696;55.698;37.460;2023-04-22T03:10:26;99029.56;;;8.23;49.93
44027;BME280;29696;55.698;37.460;2023-04-22T03:12:52;99026.78;;;8.25;49.94
44027;BME280;29696;55.698;37.460;2023-04-22T03:15:20;99030.84;;;8.29;50.02
44027;BME280;29696;55.698;37.460;2023-04-22T03:17:46;99023.44;;;8.44;49.98
44027;BME280;29696;55.698;37.460;2023-04-22T03:20:15;99025.34;;;9.96;46.69
44027;BME280;29696;55.698;37.460;2023-04-22T03:22:42;99025.47;;;11.49;43.40
44027;BME280;29696;55.698;37.460;2023-04-22T03:25:10;99024.91;;;12.82;40.71
44027;BME280;29696;55.698;37.460;2023-04-22T03:27:37;99026.34;;;13.99;38.15
44027;BME280;29696;55.698;37.460;2023-04-22T03:30:06;99024.25;;;14.96;36.08
44027;BME280;29696;55.698;37.460;2023-04-22T03:32:33;99027.34;;;15.98;34.16
44027;BME280;29696;55.698;37.460;2023-04-22T03:35:15;99030.41;;;16.98;32.36
44027;BME280;29696;55.698;37.460;2023-04-22T03:37:42;99039.50;;;17.74;31.06
44027;BME280;29696;55.698;37.460;2023-04-22T03:40:12;99029.63;;;18.51;29.98
44027;BME280;29696;55.698;37.460;2023-04-22T03:42:38;99021.59;;;19.19;28.62
44027;BME280;29696;55.698;37.460;2023-04-22T03:45:05;99032.16;;;19.80;27.49
44027;BME280;29696;55.698;37.460;2023-04-22T03:47:36;99032.66;;;20.29;26.63
44027;BME280;29696;55.698;37.460;2023-04-22T03:50:13;99032.88;;;21.11;25.88
44027;BME280;29696;55.698;37.460;2023-04-22T03:52:40;99035.63;;;21.61;24.71
44027;BME280;29696;55.698;37.460;2023-04-22T03:55:06;99045.09;;;21.88;24.55
44027;BME280;29696;55.698;37.460;2023-04-22T03:57:35;99043.69;;;22.29;23.93
44027;BME280;29696;55.698;37.460;2023-04-22T04:00:02;99040.06;;;22.54;23.30
44027;BME280;29696;55.698;37.460;2023-04-22T04:02:31;99043.06;;;22.94;23.23
44027;BME280;29696;55.698;37.460;2023-04-22T04:04:59;99032.84;;;23.27;22.58
44027;BME280;29696;55.698;37.460;2023-04-22T04:07:29;99039.16;;;23.86;21.97
44027;BME280;29696;55.698;37.460;2023-04-22T04:09:55;99041.00;;;24.44;22.01
44027;BME280;29696;55.698;37.460;2023-04-22T04:12:22;99041.22;;;24.31;21.13
44027;BME280;29696;55.698;37.460;2023-04-22T04:14:48;99036.56;;;24.67;20.97
44027;BME280;29696;55.698;37.460;2023-04-22T04:17:18;99041.09;;;25.06;20.68
44027;BME280;29696;55.698;37.460;2023-04-22T04:19:46;99042.97;;;25.35;20.25
44027;BME280;29696;55.698;37.460;2023-04-22T04:22:12;99053.25;;;25.49;19.81
44027;BME280;29696;55.698;37.460;2023-04-22T04:24:49;99051.41;;;25.72;19.84
44027;BME280;29696;55.698;37.460;2023-04-22T04:27:21;99053.53;;;26.42;19.29
44027;BME280;29696;55.698;37.460;2023-04-22T04:29:52;99050.63;;;26.27;19.00
44027;BME280;29696;55.698;37.460;2023-04-22T04:32:31;99062.53;;;26.48;18.90
44027;BME280;29696;55.698;37.460;2023-04-22T04:35:01;99050.81;;;26.86;18.61
44027;BME280;29696;55.698;37.460;2023-04-22T04:37:30;99054.16;;;26.94;18.55
44027;BME280;29696;55.698;37.460;2023-04-22T04:40:01;99046.88;;;26.99;18.35
44027;BME280;29696;55.698;37.460;2023-04-22T04:42:39;99055.31;;;27.03;18.18
44027;BME280;29696;55.698;37.460;2023-04-22T04:45:12;99052.16;;;27.70;17.95
44027;BME280;29696;55.698;37.460;2023-04-22T04:47:39;99050.88;;;28.26;17.44
44027;BME280;29696;55.698;37.460;2023-04-22T04:50:15;99050.06;;;28.25;17.24
44027;BME280;29696;55.698;37.460;2023-04-22T04:52:43;99054.06;;;28.65;17.00
44027;BME280;29696;55.698;37.460;2023-04-22T04:55:09;99049.88;;;29.30;16.67
44027;BME280;29696;55.698;37.460;2023-04-22T04:57:36;99058.56;;;29.22;16.58
44027;BME280;29696;55.698;37.460;2023-04-22T05:00:04;99052.78;;;28.98;16.54
44027;BME280;29696;55.698;37.460;2023-04-22T05:02:32;99054.53;;;29.81;15.88
44027;BME280;29696;55.698;37.460;2023-04-22T05:04:58;99054.78;;;29.95;15.58
44027;BME280;29696;55.698;37.460;2023-04-22T05:07:25;99062.59;;;30.37;15.55
44027;BME280;29696;55.698;37.460;2023-04-22T05:09:52;99061.25;;;31.00;15.11
44027;BME280;29696;55.698;37.460;2023-04-22T05:12:19;99062.78;;;31.84;14.56
44027;BME280;29696;55.698;37.460;2023-04-22T05:14:45;99062.75;;;31.90;14.61
44027;BME280;29696;55.698;37.460;2023-04-22T05:17:12;99065.53;;;32.14;14.31
44027;BME280;29696;55.698;37.460;2023-04-22T05:19:41;99061.56;;;32.73;14.11
44027;BME280;29696;55.698;37.460;2023-04-22T05:22:07;99066.09;;;33.02;13.50
44027;BME280;29696;55.698;37.460;2023-04-22T05:24:34;99067.06;;;32.49;13.59
44027;BME280;29696;55.698;37.460;2023-04-22T05:27:00;99064.66;;;32.85;13.65
44027;BME280;29696;55.698;37.460;2023-04-22T05:29:29;99068.44;;;33.46;13.14
44027;BME280;29696;55.698;37.460;2023-04-22T05:31:57;99062.84;;;33.70;12.80
44027;BME280;29696;55.698;37.460;2023-04-22T05:34:24;99067.78;;;33.54;12.94
44027;BME280;29696;55.698;37.460;2023-04-22T05:36:53;99070.63;;;32.87;13.03
44027;BME280;29696;55.698;37.460;2023-04-22T05:39:20;99058.28;;;31.30;14.09
44027;BME280;29696;55.698;37.460;2023-04-22T05:41:48;99067.06;;;31.22;14.28
44027;BME280;29696;55.698;37.460;2023-04-22T05:44:16;99063.00;;;30.70;14.16
44027;BME280;29696;55.698;37.460;2023-04-22T05:46:42;99069.22;;;29.95;14.82
44027;BME280;29696;55.698;37.460;2023-04-22T05:49:09;99070.78;;;30.17;14.45
44027;BME280;29696;55.698;37.460;2023-04-22T05:51:54;99059.91;;;31.31;14.26
44027;BME280;29696;55.698;37.460;2023-04-22T05:54:26;99071.16;;;31.64;13.27
44027;BME280;29696;55.698;37.460;2023-04-22T05:56:53;99066.84;;;31.58;13.48
44027;BME280;29696;55.698;37.460;2023-04-22T05:59:20;99071.47;;;31.92;13.19
44027;BME280;29696;55.698;37.460;2023-04-22T06:01:46;99069.78;;;32.49;12.82
44027;BME280;29696;55.698;37.460;2023-04-22T06:04:18;99072.22;;;31.97;13.26
44027;BME280;29696;55.698;37.460;2023-04-22T06:06:44;99069.97;;;31.75;13.78
44027;BME280;29696;55.698;37.460;2023-04-22T06:09:13;99069.44;;;32.56;13.05
44027;BME280;29696;55.698;37.460;2023-04-22T06:11:41;99068.44;;;33.08;12.84
44027;BME280;29696;55.698;37.460;2023-04-22T06:14:08;99065.50;;;33.89;12.27
44027;BME280;29696;55.698;37.460;2023-04-22T06:16:35;99059.91;;;33.80;12.27
44027;BME280;29696;55.698;37.460;2023-04-22T06:19:05;99077.97;;;32.25;12.67
44027;BME280;29696;55.698;37.460;2023-04-22T06:21:31;99062.38;;;31.33;13.32
44027;BME280;29696;55.698;37.460;2023-04-22T06:23:59;99079.44;;;31.54;13.20
44027;BME280;29696;55.698;37.460;2023-04-22T06:26:26;99075.81;;;31.64;13.13
44027;BME280;29696;55.698;37.460;2023-04-22T06:28:53;99075.25;;;31.61;13.01
44027;BME280;29696;55.698;37.460;2023-04-22T06:31:20;99065.81;;;31.49;13.06
44027;BME280;29696;55.698;37.460;2023-04-22T06:33:47;99067.69;;;31.82;13.08
44027;BME280;29696;55.698;37.460;2023-04-22T06:36:13;99071.16;;;31.98;12.88
44027;BME280;29696;55.698;37.460;2023-04-22T06:38:41;99075.59;;;31.55;13.25
44027;BME280;29696;55.698;37.460;2023-04-22T06:41:46;99061.56;;;29.16;14.58
44027;BME280;29696;55.698;37.460;2023-04-22T06:44:33;99064.06;;;25.49;17.63
44027;BME280;29696;55.698;37.460;2023-04-22T06:47:34;99046.75;;;27.75;16.61
44027;BME280;29696;55.698;37.460;2023-04-22T06:50:15;99044.91;;;30.14;14.88
44027;BME280;29696;55.698;37.460;2023-04-22T06:52:54;99061.03;;;29.85;14.62
44027;BME280;29696;55.698;37.460;2023-04-22T06:55:23;99061.59;;;29.82;14.95
44027;BME280;29696;55.698;37.460;2023-04-22T06:57:49;99056.97;;;26.16;17.29
44027;BME280;29696;55.698;37.460;2023-04-22T07:00:16;99064.94;;;23.58;19.67
44027;BME280;29696;55.698;37.460;2023-04-22T07:02:43;99057.16;;;24.56;19.14
44027;BME280;29696;55.698;37.460;2023-04-22T07:05:09;99051.06;;;23.43;20.38
44027;BME280;29696;55.698;37.460;2023-04-22T07:07:36;99059.72;;;23.45;20.57
44027;BME280;29696;55.698;37.460;2023-04-22T07:10:03;99058.03;;;23.20;21.14
44027;BME280;29696;55.698;37.460;2023-04-22T07:12:36;99056.94;;;21.31;22.04
44027;BME280;29696;55.698;37.460;2023-04-22T07:15:03;99045.38;;;23.75;20.88
44027;BME280;29696;55.698;37.460;2023-04-22T07:17:30;99054.19;;;24.05;19.74
44027;BME280;29696;55.698;37.460;2023-04-22T07:19:56;99072.91;;;22.26;21.26
44027;BME280;29696;55.698;37.460;2023-04-22T07:22:23;99062.59;;;21.48;22.37
44027;BME280;29696;55.698;37.460;2023-04-22T07:24:49;99055.75;;;21.20;22.60
44027;BME280;29696;55.698;37.460;2023-04-22T07:27:15;99054.94;;;20.29;23.72
44027;BME280;29696;55.698;37.460;2023-04-22T07:29:42;99050.47;;;19.64;24.60
44027;BME280;29696;55.698;37.460;2023-04-22T07:32:08;99056.03;;;19.55;24.75
44027;BME280;29696;55.698;37.460;2023-04-22T07:34:35;99061.38;;;19.29;25.04
44027;BME280;29696;55.698;37.460;2023-04-22T07:37:02;99070.25;;;18.20;26.00
44027;BME280;29696;55.698;37.460;2023-04-22T07:39:28;99059.53;;;19.56;24.90
44027;BME280;29696;55.698;37.460;2023-04-22T07:41:55;99064.72;;;22.69;21.33
44027;BME280;29696;55.698;37.460;2023-04-22T07:44:22;99064.78;;;25.28;19.37
44027;BME280;29696;55.698;37.460;2023-04-22T07:46:48;99059.41;;;26.78;17.36
44027;BME280;29696;55.698;37.460;2023-04-22T07:49:15;99051.72;;;28.94;15.48
44027;BME280;29696;55.698;37.460;2023-04-22T07:51:45;99059.66;;;30.08;14.30
44027;BME280;29696;55.698;37.460;2023-04-22T07:54:11;99068.34;;;30.25;13.30
44027;BME280;29696;55.698;37.460;2023-04-22T07:56:38;99059.31;;;30.35;13.13
44027;BME280;29696;55.698;37.460;2023-04-22T07:59:04;99055.78;;;31.00;13.25
44027;BME280;29696;55.698;37.460;2023-04-22T08:01:31;99046.91;;;31.18;13.47
44027;BME280;29696;55.698;37.460;2023-04-22T08:03:57;99076.75;;;31.04;13.08
44027;BME280;29696;55.698;37.460;2023-04-22T08:06:24;99058.44;;;30.55;13.27
44027;BME280;29696;55.698;37.460;2023-04-22T08:08:50;99050.34;;;28.97;14.65
44027;BME280;29696;55.698;37.460;2023-04-22T08:11:17;99064.19;;;26.49;16.35
44027;BME280;29696;55.698;37.460;2023-04-22T08:13:43;99062.69;;;24.49;17.96
44027;BME280;29696;55.698;37.460;2023-04-22T08:16:09;99065.66;;;24.12;18.14
44027;BME280;29696;55.698;37.460;2023-04-22T08:18:36;99059.22;;;22.94;19.40
44027;BME280;29696;55.698;37.460;2023-04-22T08:21:02;99058.25;;;24.08;19.33
44027;BME280;29696;55.698;37.460;2023-04-22T08:23:29;99058.25;;;24.31;17.97
44027;BME280;29696;55.698;37.460;2023-04-22T08:25:55;99060.94;;;23.61;18.33
44027;BME280;29696;55.698;37.460;2023-04-22T08:28:21;99059.19;;;22.64;20.09
44027;BME280;29696;55.698;37.460;2023-04-22T08:30:48;99063.28;;;21.68;21.08
44027;BME280;29696;55.698;37.460;2023-04-22T08:33:16;99056.53;;;20.95;21.61
44027;BME280;29696;55.698;37.460;2023-04-22T08:35:42;99058.66;;;20.28;22.58
44027;BME280;29696;55.698;37.460;2023-04-22T08:38:08;99054.81;;;19.45;22.74
44027;BME280;29696;55.698;37.460;2023-04-22T08:40:37;99064.41;;;18.99;24.00
44027;BME280;29696;55.698;37.460;2023-04-22T08:43:06;99068.13;;;19.05;23.89
44027;BME280;29696;55.698;37.460;2023-04-22T08:45:32;99058.47;;;19.10;24.15
44027;BME280;29696;55.698;37.460;2023-04-22T08:47:59;99054.72;;;18.98;24.75
44027;BME280;29696;55.698;37.460;2023-04-22T08:50:26;99062.53;;;18.93;24.99
44027;BME280;29696;55.698;37.460;2023-04-22T08:52:55;99060.41;;;18.75;24.49
44027;BME280;29696;55.698;37.460;2023-04-22T08:55:21;99052.50;;;18.60;25.18
44027;BME280;29696;55.698;37.460;2023-04-22T08:57:47;99051.50;;;18.55;25.53
44027;BME280;29696;55.698;37.460;2023-04-22T09:00:15;99048.16;;;18.46;25.53
44027;BME280;29696;55.698;37.460;2023-04-22T09:02:45;99062.13;;;18.48;25.89
44027;BME280;29696;55.698;37.460;2023-04-22T09:05:12;99062.50;;;18.32;26.68
44027;BME280;29696;55.698;37.460;2023-04-22T09:07:39;99072.25;;;18.11;26.34
44027;BME280;29696;55.698;37.460;2023-04-22T09:10:06;99066.72;;;17.85;26.29
44027;BME280;29696;55.698;37.460;2023-04-22T09:12:33;99062.84;;;17.66;26.82
44027;BME280;29696;55.698;37.460;2023-04-22T09:15:00;99055.25;;;17.41;26.67
44027;BME280;29696;55.698;37.460;2023-04-22T09:17:34;99065.66;;;17.57;26.92
44027;BME280;29696;55.698;37.460;2023-04-22T09:20:05;99056.44;;;17.60;26.82
44027;BME280;29696;55.698;37.460;2023-04-22T09:22:39;99067.22;;;17.73;25.66
44027;BME280;29696;55.698;37.460;2023-04-22T09:25:19;99058.91;;;17.62;25.70
44027;BME280;29696;55.698;37.460;2023-04-22T09:27:57;99066.31;;;17.17;26.70
44027;BME280;29696;55.698;37.460;2023-04-22T09:30:29;99052.53;;;16.77;27.21
44027;BME280;29696;55.698;37.460;2023-04-22T09:33:01;99061.28;;;16.71;27.43
44027;BME280;29696;55.698;37.460;2023-04-22T09:35:33;99056.25;;;16.61;27.45
44027;BME280;29696;55.698;37.460;2023-04-22T09:38:02;99046.03;;;16.64;28.36
44027;BME280;29696;55.698;37.460;2023-04-22T09:40:30;99051.06;;;16.74;27.12
44027;BME280;29696;55.698;37.460;2023-04-22T09:43:00;99049.34;;;16.66;27.06
44027;BME280;29696;55.698;37.460;2023-04-22T09:45:50;99053.88;;;17.02;27.67
44027;BME280;29696;55.698;37.460;2023-04-22T09:48:17;99052.56;;;16.98;28.48
44027;BME280;29696;55.698;37.460;2023-04-22T09:50:46;99054.84;;;17.01;27.96
44027;BME280;29696;55.698;37.460;2023-04-22T09:53:15;99053.22;;;17.22;28.48
44027;BME280;29696;55.698;37.460;2023-04-22T09:55:45;99050.75;;;17.42;28.27
44027;BME280;29696;55.698;37.460;2023-04-22T09:58:14;99055.44;;;17.40;27.75
44027;BME280;29696;55.698;37.460;2023-04-22T10:03:33;99049.19;;;17.54;28.13
44027;BME280;29696;55.698;37.460;2023-04-22T10:06:00;99049.16;;;17.47;28.08
44027;BME280;29696;55.698;37.460;2023-04-22T10:08:26;99050.31;;;17.38;27.76
44027;BME280;29696;55.698;37.460;2023-04-22T10:10:54;99053.78;;;17.39;28.18
44027;BME280;29696;55.698;37.460;2023-04-22T10:13:20;99044.84;;;17.03;27.81
44027;BME280;29696;55.698;37.460;2023-04-22T10:15:50;99045.00;;;16.80;28.57
44027;BME280;29696;55.698;37.460;2023-04-22T10:18:20;99046.38;;;16.76;28.59
44027;BME280;29696;55.698;37.460;2023-04-22T10:20:48;99040.31;;;16.82;28.11
44027;BME280;29696;55.698;37.460;2023-04-22T10:23:21;99048.81;;;16.93;27.98
44027;BME280;29696;55.698;37.460;2023-04-22T10:25:55;99045.47;;;17.05;28.24
44027;BME280;29696;55.698;37.460;2023-04-22T10:28:23;99041.56;;;17.08;28.94
44027;BME280;29696;55.698;37.460;2023-04-22T10:30:52;99038.41;;;17.19;28.17
44027;BME280;29696;55.698;37.460;2023-04-22T10:33:42;99044.75;;;17.40;27.38
44027;BME280;29696;55.698;37.460;2023-04-22T10:36:32;99028.63;;;17.26;27.34
44027;BME280;29696;55.698;37.460;2023-04-22T10:39:18;99034.97;;;17.04;26.50
44027;BME280;29696;55.698;37.460;2023-04-22T10:41:52;99036.09;;;16.58;27.69
44027;BME280;29696;55.698;37.460;2023-04-22T10:44:19;99030.03;;;16.50;27.93
44027;BME280;29696;55.698;37.460;2023-04-22T10:47:10;99034.22;;;16.88;27.86
44027;BME280;29696;55.698;37.460;2023-04-22T10:49:37;99031.88;;;16.64;27.38
44027;BME280;29696;55.698;37.460;2023-04-22T10:52:05;99037.44;;;16.69;28.04
44027;BME280;29696;55.698;37.460;2023-04-22T10:57:43;99034.91;;;16.76;28.14
44027;BME280;29696;55.698;37.460;2023-04-22T11:00:19;99033.19;;;17.11;27.68
44027;BME280;29696;55.698;37.460;2023-04-22T11:03:13;99034.56;;;17.50;28.13
44027;BME280;29696;55.698;37.460;2023-04-22T11:05:40;99027.56;;;17.49;26.12
44027;BME280;29696;55.698;37.460;2023-04-22T11:08:11;99036.00;;;17.52;26.17
44027;BME280;29696;55.698;37.460;2023-04-22T11:10:46;99031.97;;;17.56;26.94
44027;BME280;29696;55.698;37.460;2023-04-22T11:13:18;99025.16;;;17.54;25.76
44027;BME280;29696;55.698;37.460;2023-04-22T11:15:48;99023.03;;;17.21;26.09
44027;BME280;29696;55.698;37.460;2023-04-22T11:18:25;99033.72;;;17.21;26.02
44027;BME280;29696;55.698;37.460;2023-04-22T11:20:53;99031.16;;;17.13;26.65
44027;BME280;29696;55.698;37.460;2023-04-22T11:23:25;99020.03;;;17.31;26.52
44027;BME280;29696;55.698;37.460;2023-04-22T11:26:01;99033.38;;;17.31;26.22
44027;BME280;29696;55.698;37.460;2023-04-22T11:28:28;99032.66;;;16.79;25.70
44027;BME280;29696;55.698;37.460;2023-04-22T11:31:05;99032.25;;;16.61;25.38
44027;BME280;29696;55.698;37.460;2023-04-22T11:33:35;99031.25;;;16.32;26.07
44027;BME280;29696;55.698;37.460;2023-04-22T11:36:04;99017.66;;;16.27;26.23
44027;BME280;29696;55.698;37.460;2023-04-22T11:38:30;99013.41;;;16.33;26.37
44027;BME280;29696;55.698;37.460;2023-04-22T11:40:58;99013.78;;;16.44;25.99
44027;BME280;29696;55.698;37.460;2023-04-22T11:43:24;99015.13;;;16.55;25.95
44027;BME280;29696;55.698;37.460;2023-04-22T11:45:54;99012.81;;;16.67;25.73
44027;BME280;29696;55.698;37.460;2023-04-22T11:48:21;99020.88;;;16.88;25.58
44027;BME280;29696;55.698;37.460;2023-04-22T11:50:47;99014.16;;;17.14;26.00
44027;BME280;29696;55.698;37.460;2023-04-22T11:53:34;99014.56;;;17.67;25.50
44027;BME280;29696;55.698;37.460;2023-04-22T11:56:02;99017.88;;;17.69;25.09
44027;BME280;29696;55.698;37.460;2023-04-22T11:58:29;99004.81;;;17.81;25.50
44027;BME280;29696;55.698;37.460;2023-04-22T12:00:57;99017.34;;;17.81;25.46
44027;BME280;29696;55.698;37.460;2023-04-22T12:03:28;99014.50;;;17.61;25.33
44027;BME280;29696;55.698;37.460;2023-04-22T12:05:57;99011.06;;;17.39;25.49
44027;BME280;29696;55.698;37.460;2023-04-22T12:08:29;99013.31;;;17.35;25.72
44027;BME280;29696;55.698;37.460;2023-04-22T12:11:00;99002.09;;;17.25;25.60
44027;BME280;29696;55.698;37.460;2023-04-22T12:16:24;98991.84;;;17.28;25.89
44027;BME280;29696;55.698;37.460;2023-04-22T12:18:54;99002.72;;;17.48;25.24
44027;BME280;29696;55.698;37.460;2023-04-22T12:21:22;99003.00;;;17.32;24.93
44027;BME280;29696;55.698;37.460;2023-04-22T12:24:10;98997.72;;;17.39;24.90
44027;BME280;29696;55.698;37.460;2023-04-22T12:26:36;98992.53;;;16.87;25.90
44027;BME280;29696;55.698;37.460;2023-04-22T12:29:03;98983.00;;;16.78;26.01
44027;BME280;29696;55.698;37.460;2023-04-22T12:31:29;98983.44;;;16.82;25.96
44027;BME280;29696;55.698;37.460;2023-04-22T12:33:56;98982.31;;;16.91;26.32
44027;BME280;29696;55.698;37.460;2023-04-22T12:36:22;98987.56;;;17.06;26.51
44027;BME280;29696;55.698;37.460;2023-04-22T12:38:50;98974.66;;;17.09;26.55
44027;BME280;29696;55.698;37.460;2023-04-22T12:41:16;98978.84;;;17.19;25.94
44027;BME280;29696;55.698;37.460;2023-04-22T12:43:43;98983.47;;;17.31;26.39
44027;BME280;29696;55.698;37.460;2023-04-22T12:46:09;98983.66;;;17.30;25.59
44027;BME280;29696;55.698;37.460;2023-04-22T12:48:36;98987.44;;;17.14;24.93
44027;BME280;29696;55.698;37.460;2023-04-22T12:51:03;98984.38;;;16.96;25.64
44027;BME280;29696;55.698;37.460;2023-04-22T12:53:30;98986.63;;;16.92;25.14
44027;BME280;29696;55.698;37.460;2023-04-22T12:55:56;98990.88;;;16.86;25.38
44027;BME280;29696;55.698;37.460;2023-04-22T12:58:23;98987.59;;;16.70;25.47
44027;BME280;29696;55.698;37.460;2023-04-22T13:00:50;98984.09;;;16.69;26.00
44027;BME280;29696;55.698;37.460;2023-04-22T13:03:16;98982.28;;;16.70;25.33
44027;BME280;29696;55.698;37.460;2023-04-22T13:05:44;98986.13;;;16.67;25.69
44027;BME280;29696;55.698;37.460;2023-04-22T13:08:10;98979.59;;;16.70;25.84
44027;BME280;29696;55.698;37.460;2023-04-22T13:10:37;98976.56;;;16.73;25.97